CTA3 weather

Île aux Coudres Airport
Île aux Coudres, Quebec, Canada

Public forecast

Using degrees Celsius for public forecast. Weather courtesy of forecast.io.

Closest aviation weather report (METAR) to Île aux Coudres Airport

Closest report is C J.H.L.(Joe) Lecomte) Heliport, 54.2 nm (100.4 km) WSW. Retrieved 2020/04/09 06:00 UTC (35 minutes ago):

CYOY 090600Z AUTO 09003KT 040V100 9SM BKN068 M01/M08 A2960 RMK SLP032

Closest aviation forecast (TAF) to Île aux Coudres Airport

Forecast is more than 12 hours old.

Closest forecast is Charlevoix Airport, 14.1 nm (26.1 km) NNE. Retrieved 2018/06/10 18:00 UTC (2 years ago):

TAF CYML 101730Z 1018/1106 12005KT P6SM FEW060 FM102100 14006KT P6SM SCT080 BECMG 1021/1023 VRB03KT RMK NXT FCST BY 110000Z